Terminal Aerodrome Forecast
Issued by NWS

Home | Current Version | Previous Version | Text Only | Print | Product List | Glossary On
Versions: 1 2 3 4 5 6 7 8 9 10 11 12 13 14 15 16
000
FTUS42 KGSP 181100
TAFGMU
TAF
KGMU 181133Z 1812/1912 04009KT P6SM SCT045 OVC120
     FM181900 06010KT P6SM VCSH OVC025
     FM190000 03012G18KT P6SM SHRA OVC007
     FM190600 02013G22KT 4SM -RA BR OVC006=

USA.gov is the U.S. government's official web portal to all federal, state and local government web resources and services.